Time;durP1;ratioP1;P1;durP2;ratioP2;P2;SDS_P1;SDS_P2;PMS_P1;PMS_P2;Temp;Humidity;BMP_temperature;BMP_pressure;BME280_temperature;BME280_humidity;BME280_pressure;Samples;Min_cycle;Max_cycle;Signal;HPM_P1;HPM_P2
2023/12/13 00:01:44;;;;;;;4.88;0.95;;;9.50;99.90;;;;;;4974290;23;20546;-94
2023/12/13 00:03:45;;;;;;;6.70;1.10;;;9.50;99.90;;;;;;4973912;23;20148;-94
2023/12/13 00:05:46;;;;;;;3.53;0.85;;;9.50;99.90;;;;;;4973911;23;20195;-95
2023/12/13 00:07:46;;;;;;;3.95;1.45;;;9.60;99.90;;;;;;4997440;23;20151;-93
2023/12/13 00:09:47;;;;;;;2.70;0.25;;;9.60;99.90;;;;;;4997418;23;20160;-93
2023/12/13 00:11:48;;;;;;;2.70;0.47;;;9.70;99.90;;;;;;4997329;23;20148;-94
2023/12/13 00:13:49;;;;;;;4.25;1.45;;;9.60;99.90;;;;;;4973646;23;20192;-94
2023/12/13 00:15:50;;;;;;;4.90;0.98;;;9.70;99.90;;;;;;4973782;23;20251;-93
2023/12/13 00:17:51;;;;;;;5.72;0.88;;;9.70;99.90;;;;;;4973947;23;20243;-94
2023/12/13 00:19:52;;;;;;;1.25;0.80;;;9.70;99.90;;;;;;4997400;23;20259;-93
2023/12/13 00:21:52;;;;;;;5.90;0.93;;;9.70;99.90;;;;;;4973996;23;20160;-93
2023/12/13 00:23:53;;;;;;;3.17;0.63;;;9.80;99.90;;;;;;4997413;23;20152;-92
2023/12/13 00:25:54;;;;;;;5.43;0.47;;;9.70;99.90;;;;;;4997516;23;20687;-93
2023/12/13 00:27:56;;;;;;;6.38;0.70;;;9.80;99.90;;;;;;4974418;23;20164;-94
2023/12/13 00:29:57;;;;;;;3.67;1.08;;;9.70;99.90;;;;;;4974096;23;20166;-94
2023/12/13 00:31:57;;;;;;;5.63;0.43;;;9.70;99.90;;;;;;4997500;23;20179;-93
2023/12/13 00:33:58;;;;;;;3.25;0.68;;;9.70;99.90;;;;;;4973777;23;20727;-93
2023/12/13 00:35:59;;;;;;;6.13;1.15;;;9.70;99.90;;;;;;4997460;23;20258;-93
2023/12/13 00:38:00;;;;;;;1.65;0.32;;;9.80;99.90;;;;;;4997307;23;20159;-94
2023/12/13 00:40:01;;;;;;;4.88;0.98;;;9.70;99.90;;;;;;4973939;23;20163;-94
2023/12/13 00:42:02;;;;;;;4.43;0.70;;;9.80;99.90;;;;;;4997367;23;20172;-94
2023/12/13 00:44:05;;;;;;;7.35;1.08;;;9.80;99.90;;;;;;4973675;23;20160;-93
2023/12/13 00:46:13;;;;;;;1.20;0.57;;;9.80;99.90;;;;;;4973646;23;20208;-95
2023/12/13 00:48:14;;;;;;;5.55;1.23;;;9.80;99.90;;;;;;4973758;23;20156;-95
2023/12/13 00:50:14;;;;;;;1.05;0.28;;;9.70;99.90;;;;;;4997200;23;20271;-94
2023/12/13 00:52:16;;;;;;;4.75;0.68;;;9.80;99.90;;;;;;4997426;23;20555;-94
2023/12/13 00:54:16;;;;;;;2.83;0.95;;;9.70;99.90;;;;;;4997353;23;20189;-93
2023/12/13 00:56:17;;;;;;;2.90;0.95;;;9.80;99.90;;;;;;4973672;23;20190;-93
2023/12/13 00:58:18;;;;;;;2.72;0.40;;;9.80;99.90;;;;;;4973686;23;20157;-94
2023/12/13 01:00:20;;;;;;;6.82;0.47;;;9.80;99.90;;;;;;4973793;23;20179;-95
2023/12/13 01:02:20;;;;;;;0.73;0.45;;;9.80;99.90;;;;;;4973823;23;20148;-94
2023/12/13 01:04:21;;;;;;;1.20;0.28;;;9.80;99.90;;;;;;4998790;23;20155;-94
2023/12/13 01:06:22;;;;;;;2.00;0.73;;;9.80;99.90;;;;;;4975345;23;20148;-93
2023/12/13 01:08:23;;;;;;;2.45;0.47;;;9.90;99.90;;;;;;4975441;23;20157;-94
2023/12/13 01:10:24;;;;;;;1.83;0.50;;;9.80;99.90;;;;;;4998797;23;20160;-94
2023/12/13 01:12:25;;;;;;;5.97;0.70;;;9.80;99.90;;;;;;4975207;23;20260;-93
2023/12/13 01:14:26;;;;;;;8.52;0.85;;;9.70;99.90;;;;;;4974973;23;20568;-94
2023/12/13 01:16:27;;;;;;;3.05;1.08;;;9.60;99.90;;;;;;4998795;23;20159;-93
2023/12/13 01:18:28;;;;;;;10.63;0.80;;;9.60;99.90;;;;;;4998716;23;20243;-94
2023/12/13 01:20:29;;;;;;;2.90;0.73;;;9.50;99.90;;;;;;4975084;23;20211;-93
2023/12/13 01:22:30;;;;;;;9.90;1.05;;;9.50;99.90;;;;;;4975074;23;20584;-93
2023/12/13 01:24:30;;;;;;;3.97;0.55;;;9.50;99.90;;;;;;4974773;23;20210;-94
2023/12/13 01:26:31;;;;;;;2.60;0.73;;;9.50;99.90;;;;;;4974870;23;20149;-93
2023/12/13 01:28:32;;;;;;;2.67;0.60;;;9.50;99.90;;;;;;4975019;23;20156;-94
2023/12/13 01:30:33;;;;;;;2.63;0.98;;;9.60;99.90;;;;;;4998360;23;20202;-95
2023/12/13 01:32:34;;;;;;;11.48;1.52;;;9.60;99.90;;;;;;4975096;23;20148;-94
2023/12/13 01:34:35;;;;;;;7.07;0.68;;;9.70;99.90;;;;;;4975120;23;20505;-94
2023/12/13 01:36:42;;;;;;;5.85;1.20;;;9.60;99.90;;;;;;4998430;23;20219;-93
2023/12/13 01:38:43;;;;;;;16.50;1.45;;;9.70;99.90;;;;;;4975163;23;20156;-94
2023/12/13 01:40:50;;;;;;;3.13;0.75;;;9.80;99.90;;;;;;4998545;23;20218;-94
2023/12/13 01:42:51;;;;;;;7.93;1.13;;;9.70;99.90;;;;;;4974725;23;20242;-95
2023/12/13 01:44:52;;;;;;;5.35;0.82;;;9.70;99.90;;;;;;4998487;23;20522;-95
2023/12/13 01:46:53;;;;;;;10.88;1.20;;;9.70;99.90;;;;;;4975160;23;20161;-95
2023/12/13 01:48:54;;;;;;;7.65;0.57;;;9.70;99.90;;;;;;4998825;23;20547;-96
2023/12/13 01:50:55;;;;;;;12.27;0.68;;;9.60;99.90;;;;;;4975376;23;20156;-96
2023/12/13 01:52:56;;;;;;;0.63;0.47;;;9.70;99.90;;;;;;4998905;23;20160;-95
2023/12/13 01:54:57;;;;;;;11.90;1.88;;;9.60;99.90;;;;;;4998238;23;20199;-95
2023/12/13 01:56:58;;;;;;;2.55;0.50;;;9.60;99.90;;;;;;4975292;23;20176;-94
2023/12/13 01:58:59;;;;;;;2.33;0.55;;;9.50;99.90;;;;;;4975670;23;20600;-94
2023/12/13 02:01:00;;;;;;;2.17;0.88;;;9.40;99.90;;;;;;4975026;23;20152;-94
2023/12/13 02:03:01;;;;;;;7.43;0.77;;;9.50;99.90;;;;;;4974662;23;20224;-95
2023/12/13 02:05:03;;;;;;;4.60;0.50;;;9.50;99.90;;;;;;4975165;23;20658;-95
2023/12/13 02:07:04;;;;;;;3.17;0.73;;;9.40;99.90;;;;;;4974535;23;20468;-93
2023/12/13 02:09:05;;;;;;;9.02;1.55;;;9.50;99.90;;;;;;4974773;23;20239;-95
2023/12/13 02:11:06;;;;;;;3.60;1.63;;;9.40;99.90;;;;;;4975033;23;20156;-93
2023/12/13 02:13:07;;;;;;;2.75;1.00;;;9.40;99.90;;;;;;4974945;23;20243;-95
2023/12/13 02:15:10;;;;;;;0.32;0.28;;;9.40;99.90;;;;;;4973951;23;20196;-94
2023/12/13 02:17:13;;;;;;;2.92;0.75;;;9.50;99.90;;;;;;4974949;23;20156;-95
2023/12/13 02:19:14;;;;;;;4.70;0.70;;;9.50;99.90;;;;;;4975604;23;20667;-93
2023/12/13 02:21:14;;;;;;;5.22;0.82;;;9.50;99.90;;;;;;4998138;23;20152;-94
2023/12/13 02:23:15;;;;;;;13.95;1.45;;;9.50;99.90;;;;;;4974748;23;20649;-95
2023/12/13 02:25:22;;;;;;;3.22;0.22;;;9.50;99.90;;;;;;4997888;23;20186;-95
2023/12/13 02:27:28;;;;;;;3.25;0.40;;;9.50;99.90;;;;;;4997944;23;20178;-95
2023/12/13 02:29:29;;;;;;;7.72;1.23;;;9.50;99.90;;;;;;4997739;23;20629;-96
2023/12/13 02:31:30;;;;;;;7.00;1.02;;;9.50;99.90;;;;;;4974689;23;20159;-94
2023/12/13 02:33:31;;;;;;;3.72;0.98;;;9.60;99.90;;;;;;4998274;23;20188;-95
2023/12/13 02:35:32;;;;;;;5.80;0.57;;;9.70;99.90;;;;;;4998062;23;20191;-95
2023/12/13 02:37:33;;;;;;;5.22;0.98;;;9.70;99.90;;;;;;4974590;23;20184;-95
2023/12/13 02:39:34;;;;;;;10.55;1.27;;;9.60;99.90;;;;;;4974594;23;20719;-96
2023/12/13 02:41:35;;;;;;;1.65;0.38;;;9.60;99.90;;;;;;4974561;23;20168;-94
2023/12/13 02:43:36;;;;;;;0.15;0.15;;;9.50;99.90;;;;;;4974712;23;20164;-95
2023/12/13 02:45:37;;;;;;;3.88;0.95;;;9.40;99.90;;;;;;4997818;23;20179;-95
2023/12/13 02:47:41;;;;;;;1.85;0.80;;;9.50;99.90;;;;;;4974444;23;20583;-93
2023/12/13 02:49:42;;;;;;;3.60;0.85;;;9.40;99.90;;;;;;4974465;23;20159;-94
2023/12/13 02:51:43;;;;;;;2.60;1.52;;;9.50;99.90;;;;;;4974605;23;20242;-93
2023/12/13 02:53:44;;;;;;;2.25;0.93;;;9.60;99.90;;;;;;4998245;23;20187;-94
2023/12/13 02:55:45;;;;;;;3.03;0.80;;;9.60;99.90;;;;;;4974443;23;20215;-95
2023/12/13 02:57:46;;;;;;;9.27;0.60;;;9.60;99.90;;;;;;4974584;23;20153;-94
2023/12/13 02:59:47;;;;;;;5.70;0.43;;;9.60;99.90;;;;;;4974452;23;20156;-94
2023/12/13 03:01:48;;;;;;;8.75;1.33;;;9.60;99.90;;;;;;4974217;23;20152;-94
2023/12/13 03:03:49;;;;;;;3.97;1.25;;;9.60;99.90;;;;;;4974467;23;20145;-95
2023/12/13 03:05:49;;;;;;;2.78;0.80;;;9.60;99.90;;;;;;4974271;23;20176;-94
2023/12/13 03:07:50;;;;;;;9.38;1.15;;;9.60;99.90;;;;;;4974466;23;20152;-94
2023/12/13 03:09:51;;;;;;;3.40;0.32;;;9.60;99.90;;;;;;4974557;23;20217;-95
2023/12/13 03:11:52;;;;;;;14.38;1.17;;;9.60;99.90;;;;;;4974420;23;20160;-95
2023/12/13 03:13:53;;;;;;;2.78;0.43;;;9.60;99.90;;;;;;4974249;23;20183;-95
2023/12/13 03:15:54;;;;;;;16.23;1.15;;;9.60;99.90;;;;;;4974350;23;20180;-95
2023/12/13 03:17:55;;;;;;;12.77;0.55;;;9.60;99.90;;;;;;4974585;23;20160;-95
2023/12/13 03:19:55;;;;;;;6.03;0.93;;;9.50;99.90;;;;;;4974393;23;20160;-94
2023/12/13 03:21:56;;;;;;;1.27;0.75;;;9.50;99.90;;;;;;4997714;23;20638;-94
2023/12/13 03:23:57;;;;;;;3.17;0.38;;;9.60;99.90;;;;;;4974179;23;20152;-95
2023/12/13 03:25:58;;;;;;;2.50;0.80;;;9.50;99.90;;;;;;4974343;23;20513;-94
2023/12/13 03:27:59;;;;;;;7.90;0.95;;;9.50;99.90;;;;;;4997842;23;20155;-95
2023/12/13 03:30:00;;;;;;;11.27;0.80;;;9.50;99.90;;;;;;4974216;23;20157;-94
2023/12/13 03:32:00;;;;;;;3.10;0.93;;;9.60;99.90;;;;;;4997595;23;20151;-93
2023/12/13 03:34:01;;;;;;;4.82;0.98;;;9.50;99.90;;;;;;4973874;23;20718;-94
2023/12/13 03:36:02;;;;;;;1.67;1.02;;;9.50;99.90;;;;;;4974323;23;20176;-95
2023/12/13 03:38:04;;;;;;;6.72;1.42;;;9.50;99.90;;;;;;4974414;23;20167;-94
2023/12/13 03:40:06;;;;;;;7.25;0.75;;;9.50;99.90;;;;;;4997577;23;20164;-95
2023/12/13 03:42:06;;;;;;;6.32;1.13;;;9.50;99.90;;;;;;4997347;23;20208;-95
2023/12/13 03:44:07;;;;;;;3.83;0.90;;;9.40;99.90;;;;;;4974522;23;20293;-94
2023/12/13 03:46:08;;;;;;;0.47;0.20;;;9.40;99.90;;;;;;4998051;23;20151;-94
2023/12/13 03:48:09;;;;;;;0.82;0.60;;;9.40;99.90;;;;;;4997567;23;20220;-95
2023/12/13 03:50:10;;;;;;;4.65;0.60;;;9.40;99.90;;;;;;4974216;23;20156;-94
2023/12/13 03:52:11;;;;;;;4.28;0.93;;;9.40;99.90;;;;;;4997729;23;20156;-95
2023/12/13 03:54:13;;;;;;;3.35;0.50;;;9.50;99.90;;;;;;4973969;23;20223;-93
2023/12/13 03:56:14;;;;;;;6.60;0.70;;;9.50;99.90;;;;;;4997647;23;20214;-95
2023/12/13 03:58:14;;;;;;;8.02;0.95;;;9.40;99.90;;;;;;4974141;23;20155;-95
2023/12/13 04:00:16;;;;;;;0.90;0.40;;;9.40;99.90;;;;;;4974058;23;20247;-94
2023/12/13 04:02:16;;;;;;;12.25;0.80;;;9.40;99.90;;;;;;4974112;23;20273;-94
2023/12/13 04:04:17;;;;;;;4.88;1.10;;;9.40;99.90;;;;;;4997349;23;20159;-95
2023/12/13 04:06:18;;;;;;;8.25;1.15;;;9.40;99.90;;;;;;4974896;23;20159;-96
2023/12/13 04:08:19;;;;;;;2.92;0.98;;;9.40;99.90;;;;;;4973923;23;20164;-95
2023/12/13 04:10:20;;;;;;;5.07;0.47;;;9.40;99.90;;;;;;4974112;23;20157;-96
2023/12/13 04:12:21;;;;;;;9.73;0.98;;;9.40;99.90;;;;;;4997740;23;20152;-94
2023/12/13 04:14:21;;;;;;;5.78;0.60;;;9.30;99.90;;;;;;4974275;23;20632;-95
2023/12/13 04:16:22;;;;;;;1.45;0.28;;;9.30;99.90;;;;;;4997421;23;20159;-94
2023/12/13 04:18:23;;;;;;;4.57;0.65;;;9.20;99.90;;;;;;4973877;23;20152;-93
2023/12/13 04:20:24;;;;;;;3.50;0.75;;;9.20;99.90;;;;;;4974047;23;20160;-94
2023/12/13 04:22:25;;;;;;;5.90;1.23;;;9.20;99.90;;;;;;4974013;23;20583;-93
2023/12/13 04:24:26;;;;;;;15.20;1.80;;;9.20;99.90;;;;;;4997148;23;20159;-95
2023/12/13 04:26:27;;;;;;;4.53;0.70;;;9.20;99.90;;;;;;4973925;23;20159;-94
2023/12/13 04:30:29;;;;;;;3.45;0.77;;;9.20;99.90;;;;;;4974472;23;20208;-95
2023/12/13 04:32:30;;;;;;;3.30;0.65;;;9.20;99.90;;;;;;4997547;23;20200;-94
2023/12/13 04:34:31;;;;;;;10.88;1.00;;;9.20;99.90;;;;;;4974385;23;20200;-94
2023/12/13 04:36:32;;;;;;;2.45;0.77;;;9.30;99.90;;;;;;4974714;23;20156;-95
2023/12/13 04:38:34;;;;;;;8.27;1.48;;;9.30;99.90;;;;;;4974936;23;20159;-94
2023/12/13 04:40:34;;;;;;;1.55;0.38;;;9.30;99.90;;;;;;4976121;23;20152;-94
2023/12/13 04:42:35;;;;;;;4.72;0.85;;;9.30;99.90;;;;;;4975645;23;20693;-95
2023/12/13 04:44:36;;;;;;;3.22;0.57;;;9.30;99.90;;;;;;4975156;23;20236;-94
2023/12/13 04:46:37;;;;;;;1.60;0.43;;;9.30;99.90;;;;;;4975354;23;20156;-94
2023/12/13 04:48:38;;;;;;;3.53;1.15;;;9.30;99.90;;;;;;4998783;23;20219;-96
2023/12/13 04:50:38;;;;;;;2.20;0.30;;;9.30;99.90;;;;;;4975463;23;20247;-94
2023/12/13 04:52:39;;;;;;;4.28;0.30;;;9.30;99.90;;;;;;4998790;23;20163;-95
2023/12/13 04:54:41;;;;;;;4.20;0.80;;;9.40;99.90;;;;;;4975521;23;20199;-94
2023/12/13 04:56:43;;;;;;;4.25;0.98;;;9.40;99.90;;;;;;4975286;23;20223;-95
2023/12/13 04:58:44;;;;;;;11.48;1.02;;;9.50;99.90;;;;;;4998706;23;20151;-95
2023/12/13 05:00:45;;;;;;;5.78;1.30;;;9.50;99.90;;;;;;4975197;23;20164;-94
2023/12/13 05:02:46;;;;;;;3.53;0.65;;;9.50;99.90;;;;;;4975523;23;20243;-94
2023/12/13 05:04:47;;;;;;;3.80;0.90;;;9.50;99.90;;;;;;4975143;23;20293;-95
2023/12/13 05:06:48;;;;;;;3.08;0.93;;;9.40;99.90;;;;;;4998591;23;20158;-95
2023/12/13 05:08:49;;;;;;;6.97;0.68;;;9.40;99.90;;;;;;4975500;23;20160;-95
2023/12/13 05:10:50;;;;;;;5.55;0.70;;;9.40;99.90;;;;;;4975374;23;20230;-95
2023/12/13 05:12:50;;;;;;;4.75;0.52;;;9.30;99.90;;;;;;4975277;23;20148;-94
2023/12/13 05:14:51;;;;;;;4.78;0.90;;;9.30;99.90;;;;;;4998721;23;20207;-94
2023/12/13 05:16:52;;;;;;;2.08;0.75;;;9.40;99.90;;;;;;4998599;23;20203;-94
2023/12/13 05:18:53;;;;;;;3.55;0.75;;;9.30;99.90;;;;;;4975126;23;20160;-94
2023/12/13 05:20:54;;;;;;;6.07;0.50;;;9.30;99.90;;;;;;4975235;23;20243;-95
2023/12/13 05:22:55;;;;;;;2.72;0.55;;;9.20;99.90;;;;;;4975140;23;20164;-94
2023/12/13 05:24:55;;;;;;;3.38;0.57;;;9.20;99.90;;;;;;4975144;23;20254;-95
2023/12/13 05:26:56;;;;;;;5.57;0.57;;;9.20;99.90;;;;;;4998727;23;20240;-94
2023/12/13 05:28:57;;;;;;;4.63;1.35;;;9.20;99.90;;;;;;4974774;23;20164;-95
2023/12/13 05:30:58;;;;;;;1.75;1.38;;;9.20;99.90;;;;;;4975079;23;20235;-95
2023/12/13 05:32:59;;;;;;;10.38;2.33;;;9.20;99.90;;;;;;4975722;23;20160;-93
2023/12/13 05:35:00;;;;;;;2.72;0.70;;;9.10;99.90;;;;;;4974790;23;20248;-94
2023/12/13 05:37:05;;;;;;;7.22;0.73;;;9.10;99.90;;;;;;4975223;23;20215;-95
2023/12/13 05:39:07;;;;;;;1.85;0.35;;;9.20;99.90;;;;;;4975637;23;20707;-96
2023/12/13 05:41:08;;;;;;;1.95;0.45;;;9.20;99.90;;;;;;4975060;23;20548;-94
2023/12/13 05:43:09;;;;;;;2.72;0.88;;;9.20;99.90;;;;;;4975344;23;20231;-95
2023/12/13 05:45:10;;;;;;;1.88;0.40;;;9.20;99.90;;;;;;4974948;23;20180;-96
2023/12/13 05:47:11;;;;;;;1.45;0.68;;;9.20;99.90;;;;;;4998306;23;20147;-95
2023/12/13 05:49:12;;;;;;;7.63;1.55;;;9.20;99.90;;;;;;4975119;23;20175;-95
2023/12/13 05:51:13;;;;;;;4.20;0.73;;;9.10;99.90;;;;;;4974971;23;20153;-94
2023/12/13 05:53:14;;;;;;;6.20;0.80;;;9.10;99.90;;;;;;4998713;23;20163;-94
2023/12/13 05:55:15;;;;;;;2.83;1.10;;;9.00;99.90;;;;;;4975067;23;20279;-95
2023/12/13 05:57:15;;;;;;;5.28;0.73;;;9.10;99.90;;;;;;4975471;23;20155;-95
2023/12/13 05:59:16;;;;;;;3.70;0.90;;;9.10;99.90;;;;;;4974912;23;20184;-94
2023/12/13 06:01:17;;;;;;;1.90;0.57;;;9.10;99.90;;;;;;4975146;23;20152;-95
2023/12/13 06:03:18;;;;;;;4.85;0.52;;;9.10;99.90;;;;;;4975182;23;20230;-95
2023/12/13 06:05:19;;;;;;;7.95;1.13;;;9.00;99.90;;;;;;4998682;23;20631;-93
2023/12/13 06:07:20;;;;;;;3.03;0.98;;;9.00;99.90;;;;;;4974976;23;20160;-94
2023/12/13 06:09:20;;;;;;;5.18;0.65;;;9.00;99.90;;;;;;4974866;23;20156;-94
2023/12/13 06:11:22;;;;;;;5.85;0.65;;;9.00;99.90;;;;;;4974839;23;20157;-94
2023/12/13 06:13:23;;;;;;;9.90;1.23;;;9.00;99.90;;;;;;4974751;23;20164;-94
2023/12/13 06:15:24;;;;;;;8.13;1.40;;;9.00;99.90;;;;;;4974652;23;20517;-93
2023/12/13 06:17:25;;;;;;;1.75;0.75;;;9.00;99.90;;;;;;4974951;23;20156;-95
2023/12/13 06:19:29;;;;;;;6.38;1.52;;;9.00;99.90;;;;;;4974747;23;20678;-94
2023/12/13 06:21:33;;;;;;;9.35;1.13;;;9.00;99.90;;;;;;4974535;23;20157;-95
2023/12/13 06:23:35;;;;;;;0.93;0.50;;;9.00;99.90;;;;;;4974584;23;20159;-93
2023/12/13 06:25:36;;;;;;;5.82;0.68;;;9.00;99.90;;;;;;4974489;23;20253;-94
2023/12/13 06:27:36;;;;;;;8.07;1.02;;;9.00;99.90;;;;;;4974784;23;20168;-95
2023/12/13 06:29:37;;;;;;;7.78;1.63;;;9.10;99.90;;;;;;4974647;23;20634;-95
2023/12/13 06:31:38;;;;;;;15.63;1.95;;;9.10;99.90;;;;;;4997762;23;20239;-95
2023/12/13 06:33:40;;;;;;;3.58;0.38;;;9.00;99.90;;;;;;4997844;23;20155;-95
2023/12/13 06:35:40;;;;;;;10.90;0.80;;;9.10;99.90;;;;;;4974257;23;20183;-96
2023/12/13 06:37:41;;;;;;;2.15;0.60;;;9.00;99.90;;;;;;4974732;23;20152;-94
2023/12/13 06:39:42;;;;;;;3.20;0.40;;;9.20;99.90;;;;;;4974629;23;20158;-95
2023/12/13 06:41:45;;;;;;;2.85;0.60;;;9.10;99.90;;;;;;4974811;23;20164;-94
2023/12/13 06:43:47;;;;;;;2.47;0.75;;;9.20;99.90;;;;;;4974612;23;20232;-94
2023/12/13 06:45:47;;;;;;;2.33;0.70;;;9.20;99.90;;;;;;4974249;23;20182;-94
2023/12/13 06:47:48;;;;;;;4.25;1.27;;;9.20;99.90;;;;;;4974503;23;20604;-94
2023/12/13 06:49:49;;;;;;;5.00;1.55;;;9.10;99.90;;;;;;4974379;23;20160;-95
2023/12/13 06:51:50;;;;;;;4.53;0.55;;;9.10;99.90;;;;;;4997899;23;20162;-94
2023/12/13 06:53:51;;;;;;;1.58;0.45;;;9.10;99.90;;;;;;4974394;23;20599;-96
2023/12/13 06:55:52;;;;;;;11.43;1.05;;;9.10;99.90;;;;;;4997717;23;20174;-94
2023/12/13 06:57:53;;;;;;;7.20;0.85;;;9.10;99.90;;;;;;4974374;23;20153;-93
2023/12/13 06:59:54;;;;;;;2.55;0.80;;;9.10;99.90;;;;;;4974240;23;20611;-94
2023/12/13 07:01:55;;;;;;;5.97;0.77;;;9.10;99.90;;;;;;4997639;23;20179;-94
2023/12/13 07:03:55;;;;;;;1.23;0.30;;;9.00;99.90;;;;;;4974502;23;20156;-95
2023/12/13 07:05:57;;;;;;;4.82;0.65;;;9.00;99.90;;;;;;4974278;23;20267;-93
2023/12/13 07:07:57;;;;;;;2.13;1.00;;;9.00;99.90;;;;;;4997695;23;20152;-93
2023/12/13 07:09:58;;;;;;;7.32;1.55;;;9.00;99.90;;;;;;4997750;23;20570;-94
2023/12/13 07:11:59;;;;;;;1.95;0.68;;;9.00;99.90;;;;;;4974374;23;20301;-94
2023/12/13 07:14:01;;;;;;;3.30;0.73;;;9.00;99.90;;;;;;4974274;23;20192;-94
2023/12/13 07:16:03;;;;;;;3.58;1.30;;;9.10;99.90;;;;;;4974434;23;20221;-94
2023/12/13 07:18:04;;;;;;;3.80;1.27;;;9.00;99.90;;;;;;4974432;23;20675;-93
2023/12/13 07:20:06;;;;;;;3.20;0.70;;;8.90;99.90;;;;;;4997958;23;20155;-93
2023/12/13 07:22:07;;;;;;;6.70;1.02;;;8.90;99.90;;;;;;4974387;23;20541;-93
2023/12/13 07:24:08;;;;;;;10.07;0.95;;;8.90;99.90;;;;;;4974528;23;20156;-94
2023/12/13 07:26:09;;;;;;;3.60;1.30;;;9.00;99.90;;;;;;4974555;23;20179;-94
2023/12/13 07:28:10;;;;;;;4.28;0.73;;;9.00;99.90;;;;;;4997735;23;20152;-95
2023/12/13 07:30:11;;;;;;;2.65;0.60;;;9.00;99.90;;;;;;4974499;23;20156;-93
2023/12/13 07:32:12;;;;;;;5.47;1.25;;;9.00;99.90;;;;;;4997933;23;20154;-93
2023/12/13 07:34:13;;;;;;;5.50;0.52;;;9.00;99.90;;;;;;4974528;23;20187;-95
2023/12/13 07:36:14;;;;;;;1.73;0.22;;;8.90;99.90;;;;;;4997892;23;20598;-93
2023/12/13 07:38:15;;;;;;;4.10;0.73;;;9.00;99.90;;;;;;4997685;23;20162;-95
2023/12/13 07:40:16;;;;;;;4.32;1.38;;;9.00;99.90;;;;;;4974645;23;20235;-94
2023/12/13 07:42:17;;;;;;;4.18;0.70;;;9.00;99.90;;;;;;4973810;23;20260;-94
2023/12/13 07:44:18;;;;;;;1.95;0.65;;;9.00;99.90;;;;;;4973923;23;20207;-93
2023/12/13 07:46:19;;;;;;;10.15;1.23;;;8.90;99.90;;;;;;4997409;23;20155;-94
2023/12/13 07:48:23;;;;;;;14.88;1.70;;;8.90;99.90;;;;;;4974010;23;20231;-92
2023/12/13 07:50:25;;;;;;;4.38;1.15;;;8.90;99.90;;;;;;4997637;23;20159;-96
2023/12/13 07:52:25;;;;;;;5.10;1.20;;;8.80;99.90;;;;;;4974161;23;20148;-93
2023/12/13 07:54:26;;;;;;;6.15;0.55;;;8.90;99.90;;;;;;4973805;23;20550;-95
2023/12/13 07:56:30;;;;;;;9.75;0.93;;;8.80;99.90;;;;;;4997471;23;20182;-96
2023/12/13 07:58:31;;;;;;;3.90;0.88;;;8.80;99.90;;;;;;4973767;23;20156;-95
2023/12/13 08:00:32;;;;;;;4.45;1.23;;;8.80;99.90;;;;;;4974080;23;20153;-94
2023/12/13 08:02:33;;;;;;;5.93;1.13;;;8.80;99.90;;;;;;4997235;23;20159;-93
2023/12/13 08:04:34;;;;;;;0.95;0.32;;;8.90;99.90;;;;;;4974121;23;20176;-94
2023/12/13 08:06:35;;;;;;;7.75;1.00;;;8.90;99.90;;;;;;4974156;23;20272;-94
2023/12/13 08:08:39;;;;;;;5.00;0.70;;;8.90;99.90;;;;;;4997730;23;20151;-94
2023/12/13 08:10:41;;;;;;;6.93;0.43;;;8.90;99.90;;;;;;4973958;23;20160;-93
2023/12/13 08:12:42;;;;;;;3.55;0.32;;;8.90;99.90;;;;;;4997832;23;20162;-93
2023/12/13 08:14:43;;;;;;;1.40;0.40;;;9.00;99.90;;;;;;4975532;23;20643;-94
2023/12/13 08:16:44;;;;;;;2.25;0.40;;;9.10;99.90;;;;;;4999204;23;20188;-96
2023/12/13 08:18:45;;;;;;;5.00;1.05;;;9.10;99.90;;;;;;4998892;23;20159;-95
2023/12/13 08:20:46;;;;;;;7.10;1.30;;;9.10;99.90;;;;;;4975790;23;20603;-93
2023/12/13 08:22:47;;;;;;;2.22;0.60;;;9.20;99.90;;;;;;4999033;23;20243;-93
2023/12/13 08:24:48;;;;;;;5.55;1.20;;;9.30;99.90;;;;;;4999074;23;20174;-94
2023/12/13 08:26:49;;;;;;;6.60;1.50;;;9.20;99.90;;;;;;4975595;23;20209;-94
2023/12/13 08:28:49;;;;;;;2.33;0.93;;;9.10;99.90;;;;;;4975616;23;20156;-94
2023/12/13 08:30:50;;;;;;;11.50;0.98;;;9.20;99.90;;;;;;4975690;23;20216;-93
2023/12/13 08:32:51;;;;;;;1.77;0.52;;;9.20;99.90;;;;;;4999334;23;20507;-93
2023/12/13 08:34:52;;;;;;;0.35;0.30;;;9.10;99.90;;;;;;4975600;23;20192;-94
2023/12/13 08:36:53;;;;;;;11.35;1.67;;;9.00;99.90;;;;;;4999454;23;20448;-95
2023/12/13 08:38:54;;;;;;;6.07;0.82;;;9.10;99.90;;;;;;4975900;23;20604;-94
2023/12/13 08:40:55;;;;;;;3.20;0.43;;;9.10;99.90;;;;;;4998924;23;20148;-95
2023/12/13 08:42:56;;;;;;;12.25;1.13;;;9.10;99.90;;;;;;4975642;23;20170;-94
2023/12/13 08:44:57;;;;;;;2.72;0.55;;;9.00;99.90;;;;;;4999328;23;20183;-94
2023/12/13 08:46:58;;;;;;;4.50;0.68;;;9.00;99.90;;;;;;4975943;23;20596;-95
2023/12/13 08:48:59;;;;;;;1.92;0.73;;;8.90;99.90;;;;;;4975517;23;20152;-94
2023/12/13 08:51:00;;;;;;;0.50;0.30;;;9.00;99.90;;;;;;4975165;23;20222;-94
2023/12/13 08:53:01;;;;;;;12.93;1.80;;;9.00;99.90;;;;;;4975511;23;20189;-93
2023/12/13 08:55:02;;;;;;;2.00;0.82;;;9.00;99.90;;;;;;4975352;23;20192;-96
2023/12/13 08:57:03;;;;;;;4.35;1.10;;;9.10;99.90;;;;;;4975428;23;20156;-94
2023/12/13 08:59:04;;;;;;;1.95;0.60;;;9.10;99.90;;;;;;4975213;23;20573;-93
2023/12/13 09:01:06;;;;;;;3.30;0.93;;;9.00;99.90;;;;;;4998554;23;20151;-95
2023/12/13 09:03:08;;;;;;;7.93;1.08;;;8.90;99.90;;;;;;4998679;23;20174;-94
2023/12/13 09:05:09;;;;;;;1.23;1.00;;;9.00;99.90;;;;;;4975248;23;20205;-93
2023/12/13 09:07:09;;;;;;;9.80;1.10;;;9.00;99.90;;;;;;4998797;23;20191;-95
2023/12/13 09:09:11;;;;;;;5.47;1.00;;;9.10;99.90;;;;;;4998868;23;20155;-94
2023/12/13 09:11:12;;;;;;;5.30;0.65;;;9.10;99.90;;;;;;4975180;23;20160;-96
2023/12/13 09:13:13;;;;;;;3.42;1.17;;;9.10;99.90;;;;;;4975173;23;20156;-93
2023/12/13 09:15:17;;;;;;;5.90;0.90;;;9.10;99.90;;;;;;4975319;23;20199;-96
2023/12/13 09:17:18;;;;;;;1.40;0.57;;;9.20;99.90;;;;;;4998722;23;20162;-94
2023/12/13 09:19:19;;;;;;;4.95;0.57;;;9.10;99.90;;;;;;4998617;23;20540;-94
2023/12/13 09:21:24;;;;;;;1.45;0.80;;;9.20;99.90;;;;;;4975340;23;20184;-95
2023/12/13 09:23:25;;;;;;;2.67;1.00;;;9.20;99.90;;;;;;4975187;23;20236;-93
2023/12/13 09:25:26;;;;;;;2.70;1.52;;;9.20;99.90;;;;;;4999118;23;20179;-93
2023/12/13 09:27:27;;;;;;;3.92;0.85;;;9.30;99.90;;;;;;4975228;23;20145;-95
2023/12/13 09:29:28;;;;;;;4.22;1.08;;;9.30;99.90;;;;;;4975568;23;20205;-94
2023/12/13 09:31:29;;;;;;;14.13;1.90;;;9.30;99.90;;;;;;4975112;23;20156;-93
2023/12/13 09:33:30;;;;;;;6.82;1.08;;;9.30;99.90;;;;;;4998925;23;20164;-94
2023/12/13 09:35:32;;;;;;;6.43;0.98;;;9.40;99.90;;;;;;4998560;23;20195;-95
2023/12/13 09:37:33;;;;;;;2.38;0.80;;;9.40;99.90;;;;;;4974972;23;20156;-95
2023/12/13 09:39:34;;;;;;;8.00;1.35;;;9.50;99.90;;;;;;4974988;23;20160;-94
2023/12/13 09:41:53;;;;;;;9.50;1.05;;;9.40;99.90;;;;;;4998720;23;20164;-95
2023/12/13 09:43:54;;;;;;;9.70;1.52;;;9.40;99.90;;;;;;4975106;23;20231;-95
2023/12/13 09:45:56;;;;;;;1.95;0.93;;;9.40;99.90;;;;;;4998112;23;20172;-93
2023/12/13 09:47:57;;;;;;;2.95;0.70;;;9.40;99.90;;;;;;4974740;23;20164;-94
2023/12/13 09:49:58;;;;;;;6.32;1.10;;;9.50;99.90;;;;;;4975136;23;20155;-94
2023/12/13 09:52:02;;;;;;;3.90;1.50;;;9.40;99.90;;;;;;4974595;23;20174;-93
2023/12/13 09:54:05;;;;;;;2.75;1.58;;;9.40;99.90;;;;;;4975025;23;20666;-93
2023/12/13 09:56:09;;;;;;;4.32;1.05;;;9.40;99.90;;;;;;4975363;23;20180;-94
2023/12/13 09:58:11;;;;;;;3.83;1.20;;;9.50;99.90;;;;;;4975069;23;20201;-93
2023/12/13 10:00:12;;;;;;;8.20;1.90;;;9.40;99.90;;;;;;4975366;23;20153;-93
2023/12/13 10:02:16;;;;;;;6.00;1.58;;;9.50;99.90;;;;;;4975227;23;20204;-94
2023/12/13 10:04:17;;;;;;;5.32;1.08;;;9.40;99.90;;;;;;4998554;23;20151;-92
2023/12/13 10:06:19;;;;;;;10.27;1.15;;;9.30;99.90;;;;;;4975458;23;20159;-95
2023/12/13 10:08:19;;;;;;;2.55;1.20;;;9.30;99.90;;;;;;4975346;23;20160;-92
2023/12/13 10:10:20;;;;;;;5.70;1.20;;;9.20;99.90;;;;;;4998584;23;20155;-95
2023/12/13 10:12:25;;;;;;;2.85;1.25;;;9.30;99.90;;;;;;4974824;23;20225;-94
2023/12/13 10:14:27;;;;;;;2.70;0.80;;;9.40;99.90;;;;;;4975131;23;20223;-93
2023/12/13 10:16:28;;;;;;;1.88;0.82;;;9.40;99.90;;;;;;4998194;23;20156;-95
2023/12/13 10:18:30;;;;;;;4.13;1.08;;;9.30;99.90;;;;;;4974728;23;20160;-94
2023/12/13 10:20:31;;;;;;;3.80;1.13;;;9.30;99.90;;;;;;4974635;23;20207;-94
2023/12/13 10:22:33;;;;;;;4.57;1.13;;;9.20;99.90;;;;;;4974711;23;20160;-93
2023/12/13 10:24:34;;;;;;;4.25;1.05;;;9.20;99.90;;;;;;4974320;23;20176;-93
2023/12/13 10:26:35;;;;;;;4.93;1.20;;;9.10;99.90;;;;;;4974786;23;20161;-94
2023/12/13 10:28:37;;;;;;;7.70;1.20;;;9.20;99.90;;;;;;4974692;23;20241;-95
2023/12/13 10:30:37;;;;;;;2.10;1.00;;;9.20;99.90;;;;;;4974603;23;20565;-93
2023/12/13 10:32:39;;;;;;;3.72;1.27;;;9.10;99.90;;;;;;4974669;23;20231;-94
2023/12/13 10:34:40;;;;;;;3.70;0.95;;;9.20;99.90;;;;;;4997803;23;20195;-94
2023/12/13 10:36:42;;;;;;;4.03;1.55;;;9.30;99.90;;;;;;4974383;23;20156;-94
2023/12/13 10:38:47;;;;;;;3.97;1.33;;;9.40;99.90;;;;;;4974694;23;20159;-95
2023/12/13 10:40:48;;;;;;;7.07;1.15;;;9.50;99.90;;;;;;4975137;23;20152;-93